Time;durP1;ratioP1;P1;durP2;ratioP2;P2;SDS_P1;SDS_P2;PMS_P1;PMS_P2;Temp;Humidity;BMP_temperature;BMP_pressure;BME280_temperature;BME280_humidity;BME280_pressure;Samples;Min_cycle;Max_cycle;Signal;HPM_P1;HPM_P2
2021/08/15 00:00:11;;;;;;;10.90;7.00;;;;;13.70;100995.00;;;;5066166;28;20036;-69
2021/08/15 00:02:37;;;;;;;10.98;7.75;;;;;13.60;101020.00;;;;5064883;28;20036;-70
2021/08/15 00:05:05;;;;;;;10.57;8.02;;;;;13.60;101024.00;;;;5066725;28;20475;-71
2021/08/15 00:07:31;;;;;;;8.35;7.32;;;;;13.60;101030.00;;;;5065178;28;20057;-69
2021/08/15 00:09:58;;;;;;;13.98;8.02;;;;;13.60;101014.00;;;;5065714;28;20029;-69
2021/08/15 00:12:24;;;;;;;12.55;8.18;;;;;13.50;101014.00;;;;5065737;28;20115;-70
2021/08/15 00:14:51;;;;;;;12.25;7.78;;;;;13.40;101024.00;;;;5065698;28;20554;-69
2021/08/15 00:17:17;;;;;;;13.77;8.30;;;;;13.40;101014.00;;;;5065899;28;20100;-69
2021/08/15 00:19:44;;;;;;;10.38;7.45;;;;;13.50;101010.00;;;;5066208;28;20029;-69
2021/08/15 00:22:11;;;;;;;13.63;8.02;;;;;13.50;101031.00;;;;5068959;28;20035;-69
2021/08/15 00:24:38;;;;;;;12.77;8.55;;;;;13.50;101031.00;;;;5052130;28;20483;-69
2021/08/15 00:27:05;;;;;;;12.45;8.27;;;;;13.50;101026.00;;;;5049922;28;20480;-68
2021/08/15 00:29:32;;;;;;;12.00;8.63;;;;;13.50;101029.00;;;;5051954;28;20079;-69
2021/08/15 00:31:58;;;;;;;10.82;8.05;;;;;13.50;101030.00;;;;5050005;28;20036;-69
2021/08/15 00:34:25;;;;;;;10.30;8.07;;;;;13.40;101021.00;;;;5049158;28;20602;-69
2021/08/15 00:36:51;;;;;;;16.75;8.60;;;;;13.40;101016.00;;;;5049754;28;20487;-69
2021/08/15 00:39:18;;;;;;;11.93;8.00;;;;;13.40;101013.00;;;;5049770;28;20052;-71
2021/08/15 00:41:44;;;;;;;14.35;8.18;;;;;13.40;101015.00;;;;5049348;28;20032;-69
2021/08/15 00:44:12;;;;;;;15.55;8.48;;;;;13.50;101028.00;;;;5049440;28;20381;-69
2021/08/15 00:46:39;;;;;;;16.20;8.23;;;;;13.60;101024.00;;;;5049148;28;20032;-69
2021/08/15 00:49:06;;;;;;;17.33;8.98;;;;;13.60;101009.00;;;;5052584;28;20029;-68
2021/08/15 00:51:32;;;;;;;24.55;9.80;;;;;13.60;100999.00;;;;5058613;28;20881;-69
2021/08/15 00:53:59;;;;;;;16.17;8.02;;;;;13.50;101017.00;;;;5060025;28;20122;-69
2021/08/15 00:56:26;;;;;;;20.27;8.65;;;;;13.50;101010.00;;;;5059942;28;20157;-69
2021/08/15 00:58:54;;;;;;;11.88;8.95;;;;;13.60;101009.00;;;;5059183;28;20056;-68
2021/08/15 01:01:20;;;;;;;15.18;9.65;;;;;13.70;101005.00;;;;5066203;28;20029;-69
2021/08/15 01:03:47;;;;;;;20.40;9.88;;;;;13.80;101005.00;;;;5068844;28;20029;-69
2021/08/15 01:06:13;;;;;;;22.27;9.38;;;;;13.90;100992.00;;;;5068967;28;20031;-68
2021/08/15 01:08:40;;;;;;;26.67;9.30;;;;;14.00;101009.00;;;;5069343;28;20059;-69
2021/08/15 01:11:09;;;;;;;15.20;9.00;;;;;14.00;101005.00;;;;5069519;28;20522;-69
2021/08/15 01:13:40;;;;;;;15.55;9.48;;;;;14.10;101013.00;;;;5068982;28;20029;-70
2021/08/15 01:16:07;;;;;;;15.35;7.88;;;;;14.20;101002.00;;;;5069119;28;20074;-69
2021/08/15 01:18:36;;;;;;;16.23;9.90;;;;;14.30;101024.00;;;;5069162;28;20141;-69
2021/08/15 01:21:04;;;;;;;15.93;9.10;;;;;14.30;101022.00;;;;5069101;28;20039;-69
2021/08/15 01:23:32;;;;;;;15.95;8.45;;;;;14.40;101029.00;;;;5069198;28;20032;-69
2021/08/15 01:26:00;;;;;;;16.88;8.77;;;;;14.40;101022.00;;;;5068830;28;20047;-69
2021/08/15 01:28:28;;;;;;;21.17;8.85;;;;;14.40;101010.00;;;;5068442;28;20028;-69
2021/08/15 01:30:54;;;;;;;13.20;8.45;;;;;14.40;101002.00;;;;5067825;28;20036;-70
2021/08/15 01:33:25;;;;;;;11.38;7.53;;;;;14.50;101012.00;;;;5068750;28;20032;-69
2021/08/15 01:35:53;;;;;;;15.77;8.27;;;;;14.50;101018.00;;;;5068019;28;20089;-69
2021/08/15 01:38:21;;;;;;;13.05;7.93;;;;;14.50;101009.00;;;;5068621;28;20068;-68
2021/08/15 01:40:48;;;;;;;12.05;7.90;;;;;14.50;101014.00;;;;5068999;28;20032;-69
2021/08/15 01:43:15;;;;;;;13.35;8.07;;;;;14.50;101006.00;;;;5068164;28;20032;-70
2021/08/15 01:45:42;;;;;;;13.77;7.93;;;;;14.50;101005.00;;;;5068229;28;20395;-68
2021/08/15 01:48:09;;;;;;;14.05;7.68;;;;;14.50;101018.00;;;;5068133;28;20036;-70
2021/08/15 01:50:36;;;;;;;16.30;8.35;;;;;14.50;100999.00;;;;5067914;28;20028;-68
2021/08/15 01:53:08;;;;;;;22.67;7.75;;;;;14.50;100987.00;;;;5068403;28;20111;-67
2021/08/15 01:55:34;;;;;;;11.25;7.97;;;;;14.50;101013.00;;;;5067846;28;20024;-69
2021/08/15 01:58:01;;;;;;;11.57;7.85;;;;;14.50;101015.00;;;;5068313;28;20479;-68
2021/08/15 02:00:27;;;;;;;12.13;7.72;;;;;14.40;101010.00;;;;5068056;28;20032;-69
2021/08/15 02:02:54;;;;;;;12.90;7.65;;;;;14.40;101005.00;;;;5067456;28;20395;-68
2021/08/15 02:05:20;;;;;;;12.13;8.10;;;;;14.40;101003.00;;;;5067753;28;20484;-69
2021/08/15 02:07:51;;;;;;;14.68;8.68;;;;;14.40;101009.00;;;;5067940;28;20048;-69
2021/08/15 02:10:18;;;;;;;15.77;7.78;;;;;14.30;101009.00;;;;5067351;28;20037;-70
2021/08/15 02:12:44;;;;;;;15.60;7.90;;;;;14.30;101020.00;;;;5068021;28;20642;-69
2021/08/15 02:15:11;;;;;;;12.27;7.57;;;;;14.20;101000.00;;;;5067781;28;20056;-69
2021/08/15 02:17:38;;;;;;;12.98;7.60;;;;;14.20;101007.00;;;;5067815;28;20142;-69
2021/08/15 02:20:06;;;;;;;14.70;9.13;;;;;14.20;101011.00;;;;5067189;28;20066;-69
2021/08/15 02:22:32;;;;;;;17.40;8.82;;;;;14.20;101014.00;;;;5067679;28;20032;-68
2021/08/15 02:24:59;;;;;;;12.38;8.07;;;;;14.20;101001.00;;;;5067254;28;20636;-69
2021/08/15 02:27:25;;;;;;;15.70;9.18;;;;;14.20;101002.00;;;;5068002;28;20040;-70
2021/08/15 02:29:52;;;;;;;14.50;9.20;;;;;14.20;101015.00;;;;5067723;28;20456;-69
2021/08/15 02:32:19;;;;;;;20.27;8.70;;;;;14.10;101007.00;;;;5050051;28;20024;-69
2021/08/15 02:34:45;;;;;;;12.68;8.07;;;;;14.00;100993.00;;;;5067161;28;20060;-67
2021/08/15 02:37:12;;;;;;;15.65;8.93;;;;;13.90;100995.00;;;;5067615;28;20086;-69
2021/08/15 02:39:38;;;;;;;12.50;8.48;;;;;13.80;101008.00;;;;5067274;28;20399;-69
2021/08/15 02:42:05;;;;;;;10.82;7.90;;;;;13.70;100984.00;;;;5067400;28;20032;-68
2021/08/15 02:44:32;;;;;;;11.20;8.20;;;;;13.60;100984.00;;;;5066724;28;20669;-69
2021/08/15 02:46:59;;;;;;;15.18;8.27;;;;;13.50;101001.00;;;;5066969;28;20036;-69
2021/08/15 02:49:25;;;;;;;13.00;8.55;;;;;13.40;100984.00;;;;5067569;28;20572;-70
2021/08/15 02:51:54;;;;;;;16.75;9.02;;;;;13.30;100974.00;;;;5067835;28;20086;-68
2021/08/15 02:54:20;;;;;;;15.25;8.65;;;;;13.20;100988.00;;;;5066991;28;20039;-68
2021/08/15 02:56:47;;;;;;;16.13;8.20;;;;;13.20;100972.00;;;;5049774;28;20507;-69
2021/08/15 02:59:13;;;;;;;16.95;9.55;;;;;13.20;100985.00;;;;5067507;28;20024;-69
2021/08/15 03:01:40;;;;;;;18.98;9.48;;;;;13.10;100987.00;;;;5067209;28;20035;-69
2021/08/15 03:04:06;;;;;;;13.10;8.88;;;;;13.00;100985.00;;;;5066733;28;20506;-70
2021/08/15 03:06:33;;;;;;;15.23;7.82;;;;;12.90;100985.00;;;;5066607;28;20056;-68
2021/08/15 03:08:59;;;;;;;14.15;8.55;;;;;12.80;100983.00;;;;5067028;28;20044;-69
2021/08/15 03:11:26;;;;;;;13.50;9.13;;;;;12.80;100982.00;;;;5066397;28;20032;-70
2021/08/15 03:13:52;;;;;;;16.98;10.23;;;;;12.90;100976.00;;;;5067104;28;20051;-69
2021/08/15 03:16:19;;;;;;;14.70;9.57;;;;;12.90;100984.00;;;;5066860;28;20476;-68
2021/08/15 03:18:45;;;;;;;17.67;11.05;;;;;13.00;100985.00;;;;5066654;28;20037;-69
2021/08/15 03:21:12;;;;;;;17.40;10.18;;;;;13.10;100990.00;;;;5066669;28;20194;-68
2021/08/15 03:23:40;;;;;;;13.88;9.00;;;;;13.30;100988.00;;;;5065986;28;20147;-69
2021/08/15 03:26:07;;;;;;;11.68;8.38;;;;;13.40;100972.00;;;;5066363;28;20025;-70
2021/08/15 03:28:34;;;;;;;13.25;8.40;;;;;13.50;100985.00;;;;5066375;28;20461;-69
2021/08/15 03:31:00;;;;;;;14.98;8.73;;;;;13.60;100976.00;;;;5066660;28;20043;-69
2021/08/15 03:33:27;;;;;;;17.33;9.38;;;;;13.70;100984.00;;;;5066340;28;20025;-69
2021/08/15 03:35:53;;;;;;;12.95;8.73;;;;;13.70;100975.00;;;;5065852;28;20032;-69
2021/08/15 03:38:21;;;;;;;15.70;9.52;;;;;13.70;100964.00;;;;5066903;28;20040;-70
2021/08/15 03:40:47;;;;;;;16.20;9.48;;;;;13.80;100988.00;;;;5066611;28;20086;-68
2021/08/15 03:43:14;;;;;;;13.13;8.93;;;;;13.90;100985.00;;;;5066188;28;20059;-70
2021/08/15 03:45:40;;;;;;;14.40;8.82;;;;;13.90;100982.00;;;;5067099;28;20032;-68
2021/08/15 03:48:07;;;;;;;14.98;8.10;;;;;13.90;100975.00;;;;5066169;28;20021;-70
2021/08/15 03:50:33;;;;;;;15.68;8.77;;;;;13.90;100982.00;;;;5065865;28;20104;-69
2021/08/15 03:53:00;;;;;;;11.95;9.23;;;;;13.90;100969.00;;;;5066165;28;20028;-69
2021/08/15 03:55:26;;;;;;;11.82;8.63;;;;;14.00;100973.00;;;;5066462;28;20555;-68
2021/08/15 03:57:53;;;;;;;14.50;9.23;;;;;14.00;100973.00;;;;5066345;28;20038;-68
2021/08/15 04:00:20;;;;;;;15.73;10.02;;;;;14.00;100962.00;;;;5066328;28;20431;-69
2021/08/15 04:02:46;;;;;;;11.13;8.23;;;;;14.00;100965.00;;;;5065724;28;20040;-69
2021/08/15 04:05:13;;;;;;;12.98;8.15;;;;;14.00;100961.00;;;;5066194;28;20418;-69
2021/08/15 04:07:39;;;;;;;17.75;9.00;;;;;14.00;100962.00;;;;5066137;28;20400;-68
2021/08/15 04:10:08;;;;;;;14.60;8.45;;;;;14.00;100960.00;;;;5066074;28;20040;-69
2021/08/15 04:12:38;;;;;;;12.65;8.20;;;;;14.00;100971.00;;;;5066259;28;20625;-69
2021/08/15 04:15:05;;;;;;;12.85;8.40;;;;;14.00;100966.00;;;;5066675;28;20036;-69
2021/08/15 04:17:31;;;;;;;11.50;7.95;;;;;13.90;100972.00;;;;5065354;28;20060;-69
2021/08/15 04:19:58;;;;;;;11.20;7.93;;;;;13.90;100959.00;;;;5065612;28;20122;-68
2021/08/15 04:22:24;;;;;;;12.35;7.45;;;;;13.80;100961.00;;;;5065844;28;20395;-69
2021/08/15 04:24:51;;;;;;;12.88;7.65;;;;;13.80;100968.00;;;;5065914;28;20028;-68
2021/08/15 04:27:18;;;;;;;13.23;8.82;;;;;13.80;100961.00;;;;5065415;28;20028;-69
2021/08/15 04:29:44;;;;;;;12.32;8.13;;;;;13.80;100954.00;;;;5065614;28;20035;-69
2021/08/15 04:32:11;;;;;;;14.45;8.90;;;;;13.80;100958.00;;;;5065523;28;20039;-68
2021/08/15 04:34:37;;;;;;;16.15;8.75;;;;;13.80;100958.00;;;;5065643;28;20024;-68
2021/08/15 04:37:04;;;;;;;17.23;8.65;;;;;13.80;100960.00;;;;5065858;28;20032;-68
2021/08/15 04:39:31;;;;;;;12.77;8.05;;;;;13.70;100961.00;;;;5065923;28;20024;-68
2021/08/15 04:41:58;;;;;;;12.00;8.98;;;;;13.70;100949.00;;;;5066118;28;20059;-68
2021/08/15 04:44:24;;;;;;;11.82;9.00;;;;;13.70;100966.00;;;;5065275;28;20114;-69
2021/08/15 04:46:51;;;;;;;14.25;7.97;;;;;13.70;100956.00;;;;5065639;28;20033;-67
2021/08/15 04:49:17;;;;;;;11.95;8.40;;;;;13.70;100965.00;;;;5066330;28;20026;-69
2021/08/15 04:51:44;;;;;;;14.57;9.38;;;;;13.70;100955.00;;;;5066016;28;20078;-68
2021/08/15 04:54:10;;;;;;;13.57;8.07;;;;;13.60;100956.00;;;;5065601;28;20032;-68
2021/08/15 04:56:37;;;;;;;14.30;8.43;;;;;13.50;100954.00;;;;5065602;28;20066;-69
2021/08/15 04:59:03;;;;;;;12.55;8.70;;;;;13.50;100969.00;;;;5065752;28;20399;-69
2021/08/15 05:01:30;;;;;;;9.95;8.63;;;;;13.40;100953.00;;;;5065698;28;21264;-68
2021/08/15 05:03:56;;;;;;;9.00;7.90;;;;;13.30;100949.00;;;;5047343;28;20127;-69
2021/08/15 05:06:23;;;;;;;17.60;10.02;;;;;13.20;100939.00;;;;5066186;28;20158;-70
2021/08/15 05:08:49;;;;;;;9.88;8.02;;;;;13.10;100933.00;;;;5068754;28;20060;-68
2021/08/15 05:11:17;;;;;;;14.27;9.13;;;;;13.10;100943.00;;;;5069127;28;20028;-67
2021/08/15 05:13:45;;;;;;;17.05;8.20;;;;;13.00;100935.00;;;;5068598;28;20029;-68
2021/08/15 05:16:11;;;;;;;10.23;7.93;;;;;13.00;100937.00;;;;5050884;28;20063;-68
2021/08/15 05:18:38;;;;;;;14.07;9.15;;;;;12.90;100923.00;;;;5068989;28;20031;-71
2021/08/15 05:21:04;;;;;;;15.68;9.05;;;;;12.80;100933.00;;;;5068792;28;20016;-71
2021/08/15 05:23:31;;;;;;;15.30;9.52;;;;;12.70;100931.00;;;;5069816;28;20033;-70
2021/08/15 05:25:57;;;;;;;14.43;9.20;;;;;12.80;100915.00;;;;5068867;28;20028;-69
2021/08/15 05:28:24;;;;;;;14.43;8.57;;;;;12.60;100917.00;;;;5069094;28;20035;-70
2021/08/15 05:30:50;;;;;;;12.60;9.23;;;;;12.50;100893.00;;;;5068712;28;20110;-69
2021/08/15 05:33:17;;;;;;;16.17;9.77;;;;;12.50;100908.00;;;;5068559;28;20520;-68
2021/08/15 05:35:44;;;;;;;13.02;9.68;;;;;12.50;100908.00;;;;5068887;28;20492;-70
2021/08/15 05:38:10;;;;;;;14.90;9.27;;;;;12.40;100908.00;;;;5068605;28;20572;-70
2021/08/15 05:40:37;;;;;;;16.90;9.27;;;;;12.40;100913.00;;;;5068255;28;20017;-71
2021/08/15 05:43:03;;;;;;;15.98;10.27;;;;;12.30;100889.00;;;;5068286;28;20484;-69
2021/08/15 05:45:30;;;;;;;15.52;10.57;;;;;12.20;100890.00;;;;5069008;28;20073;-69
2021/08/15 05:47:56;;;;;;;14.90;9.55;;;;;12.10;100893.00;;;;5068854;28;20077;-70
2021/08/15 05:50:23;;;;;;;14.32;10.43;;;;;12.10;100882.00;;;;5068426;28;20074;-71
2021/08/15 05:52:49;;;;;;;19.33;10.77;;;;;12.10;100883.00;;;;5068089;28;20078;-70
2021/08/15 05:55:16;;;;;;;18.20;9.70;;;;;12.10;100870.00;;;;5067949;28;20377;-71
2021/08/15 05:57:43;;;;;;;13.98;9.00;;;;;12.10;100877.00;;;;5067700;28;20621;-70
2021/08/15 06:00:09;;;;;;;21.00;11.63;;;;;12.00;100864.00;;;;5068626;28;20035;-69
2021/08/15 06:02:36;;;;;;;21.13;12.65;;;;;12.00;100882.00;;;;5068562;28;20039;-69
2021/08/15 06:05:03;;;;;;;22.38;12.50;;;;;12.00;100882.00;;;;5068250;28;20133;-70
2021/08/15 06:07:29;;;;;;;22.50;11.93;;;;;12.00;100868.00;;;;5067742;28;20481;-71
2021/08/15 06:09:56;;;;;;;20.88;12.82;;;;;12.00;100875.00;;;;5067824;28;20059;-70
2021/08/15 06:12:22;;;;;;;18.70;12.45;;;;;11.90;100864.00;;;;5068343;28;20100;-70
2021/08/15 06:14:49;;;;;;;23.48;12.07;;;;;11.90;100872.00;;;;5068311;28;20024;-70
2021/08/15 06:17:16;;;;;;;22.67;13.27;;;;;11.90;100880.00;;;;5067339;28;20037;-68
2021/08/15 06:19:42;;;;;;;23.45;13.07;;;;;11.90;100881.00;;;;5067308;28;20056;-70
2021/08/15 06:22:09;;;;;;;19.65;12.40;;;;;11.90;100884.00;;;;5067603;28;20029;-70
2021/08/15 06:24:37;;;;;;;17.15;12.10;;;;;11.90;100860.00;;;;5067046;28;20119;-70
2021/08/15 06:27:04;;;;;;;24.73;13.43;;;;;11.90;100865.00;;;;5067324;28;20484;-70
2021/08/15 06:29:31;;;;;;;15.68;10.77;;;;;11.80;100874.00;;;;5067612;28;20028;-70
2021/08/15 06:31:57;;;;;;;19.38;9.10;;;;;11.80;100877.00;;;;5067861;28;20111;-69
2021/08/15 06:34:24;;;;;;;71.65;11.25;;;;;11.70;100877.00;;;;5067346;28;20078;-70
2021/08/15 06:36:51;;;;;;;15.35;9.82;;;;;11.80;100873.00;;;;5067236;28;20070;-70
2021/08/15 06:39:17;;;;;;;16.92;9.18;;;;;11.80;100866.00;;;;5067171;28;20492;-70
2021/08/15 06:41:44;;;;;;;15.95;8.75;;;;;11.90;100883.00;;;;5067654;28;20403;-69
2021/08/15 06:44:10;;;;;;;14.38;9.57;;;;;11.80;100870.00;;;;5067245;28;20032;-69
2021/08/15 06:46:37;;;;;;;13.52;9.43;;;;;11.80;100862.00;;;;5067276;28;20032;-69
2021/08/15 06:49:03;;;;;;;14.32;8.48;;;;;11.70;100875.00;;;;5067377;28;20111;-69
2021/08/15 06:51:30;;;;;;;18.10;12.18;;;;;11.80;100861.00;;;;5067769;28;20031;-68
2021/08/15 06:53:56;;;;;;;18.92;11.40;;;;;11.80;100852.00;;;;5067515;28;21357;-69
2021/08/15 06:56:23;;;;;;;24.52;12.13;;;;;11.70;100853.00;;;;5067034;28;20033;-69
2021/08/15 06:58:50;;;;;;;17.00;10.60;;;;;11.60;100857.00;;;;5067036;28;20033;-70
2021/08/15 07:01:17;;;;;;;17.88;10.38;;;;;11.60;100859.00;;;;5067146;28;20036;-69
2021/08/15 07:03:44;;;;;;;18.45;11.60;;;;;11.60;100839.00;;;;5066527;28;20060;-70
2021/08/15 07:06:11;;;;;;;17.67;11.13;;;;;11.60;100844.00;;;;5066248;28;20090;-70
2021/08/15 07:08:37;;;;;;;20.85;12.25;;;;;11.60;100830.00;;;;5048493;28;20064;-69
2021/08/15 07:11:05;;;;;;;18.67;11.25;;;;;11.60;100835.00;;;;5067006;28;20399;-71
2021/08/15 07:13:31;;;;;;;22.98;13.48;;;;;11.60;100819.00;;;;5067282;28;20036;-70
2021/08/15 07:15:58;;;;;;;21.92;12.48;;;;;11.60;100844.00;;;;5066175;28;20040;-69
2021/08/15 07:18:24;;;;;;;21.92;13.27;;;;;11.70;100827.00;;;;5066912;28;20107;-70
2021/08/15 07:20:54;;;;;;;22.60;12.73;;;;;11.80;100818.00;;;;5065920;28;20035;-69
2021/08/15 07:23:20;;;;;;;18.48;13.07;;;;;11.70;100844.00;;;;5066500;28;20039;-70
2021/08/15 07:25:47;;;;;;;22.83;13.57;;;;;11.60;100833.00;;;;5066454;28;20472;-69
2021/08/15 07:28:13;;;;;;;21.92;13.05;;;;;11.50;100817.00;;;;5066495;28;20024;-70
2021/08/15 07:30:40;;;;;;;19.73;12.73;;;;;11.50;100836.00;;;;5066216;28;20110;-70
2021/08/15 07:33:07;;;;;;;21.35;12.05;;;;;11.50;100846.00;;;;5066975;28;20020;-71
2021/08/15 07:35:37;;;;;;;19.30;13.57;;;;;11.50;100845.00;;;;5066126;28;20029;-70
2021/08/15 07:38:04;;;;;;;17.73;11.85;;;;;11.40;100839.00;;;;5066816;28;20028;-70
2021/08/15 07:40:31;;;;;;;29.45;12.88;;;;;11.40;100844.00;;;;5066851;28;20033;-70
2021/08/15 07:42:58;;;;;;;28.27;12.75;;;;;11.30;100833.00;;;;5066950;28;20028;-69
2021/08/15 07:45:28;;;;;;;15.00;10.60;;;;;11.30;100836.00;;;;5066415;28;20029;-69
2021/08/15 07:47:55;;;;;;;16.73;9.40;;;;;11.30;100824.00;;;;5065963;28;20040;-70
2021/08/15 07:50:21;;;;;;;18.23;11.15;;;;;11.20;100845.00;;;;5066570;28;20445;-70
2021/08/15 07:52:48;;;;;;;18.77;11.65;;;;;11.30;100849.00;;;;5066139;28;20066;-69
2021/08/15 07:55:15;;;;;;;14.52;9.93;;;;;11.30;100828.00;;;;5066112;28;20040;-69
2021/08/15 07:57:42;;;;;;;17.50;10.45;;;;;11.30;100821.00;;;;5066173;28;20111;-70
2021/08/15 08:00:09;;;;;;;15.52;10.95;;;;;11.40;100831.00;;;;5065870;28;20454;-71
2021/08/15 08:02:35;;;;;;;18.50;10.90;;;;;11.40;100829.00;;;;5065544;28;20553;-70
2021/08/15 08:05:02;;;;;;;23.27;12.15;;;;;11.40;100828.00;;;;5066365;28;20066;-70
2021/08/15 08:07:29;;;;;;;17.08;11.90;;;;;11.40;100826.00;;;;5066108;28;20049;-69
2021/08/15 08:09:56;;;;;;;21.77;12.38;;;;;11.40;100827.00;;;;5066773;28;20226;-68
2021/08/15 08:12:22;;;;;;;20.38;11.48;;;;;11.40;100814.00;;;;5066142;28;20547;-70
2021/08/15 08:14:49;;;;;;;20.38;12.27;;;;;11.40;100818.00;;;;5065738;28;20028;-70
2021/08/15 08:17:17;;;;;;;20.55;12.45;;;;;11.50;100821.00;;;;5065322;28;20037;-69
2021/08/15 08:19:45;;;;;;;19.98;10.73;;;;;11.60;100826.00;;;;5066121;28;20025;-70
2021/08/15 08:22:11;;;;;;;20.52;11.85;;;;;11.70;100827.00;;;;5066009;28;20099;-69
2021/08/15 08:24:38;;;;;;;23.38;12.32;;;;;11.70;100844.00;;;;5065376;28;20495;-70
2021/08/15 08:27:05;;;;;;;26.88;14.25;;;;;11.80;100839.00;;;;5066181;28;20029;-69
2021/08/15 08:29:32;;;;;;;29.73;15.10;;;;;11.90;100828.00;;;;5065557;28;20470;-70
2021/08/15 08:31:58;;;;;;;26.30;14.48;;;;;12.00;100835.00;;;;5066487;28;20032;-71
2021/08/15 08:34:25;;;;;;;34.00;15.63;;;;;12.00;100826.00;;;;5065935;28;20032;-70
2021/08/15 08:36:51;;;;;;;41.28;15.48;;;;;12.10;100829.00;;;;5065783;28;20028;-69
2021/08/15 08:39:18;;;;;;;27.30;14.45;;;;;12.10;100844.00;;;;5066081;28;20024;-70
2021/08/15 08:41:46;;;;;;;93.88;18.92;;;;;12.20;100863.00;;;;5067023;28;20032;-69
2021/08/15 08:44:14;;;;;;;58.65;18.75;;;;;12.30;100857.00;;;;5069276;28;20036;-70
2021/08/15 08:46:41;;;;;;;138.95;21.08;;;;;12.30;100856.00;;;;5069488;28;20064;-69
2021/08/15 08:49:08;;;;;;;142.05;22.75;;;;;12.40;100871.00;;;;5070060;28;20028;-69
2021/08/15 08:51:35;;;;;;;240.00;25.02;;;;;12.40;100884.00;;;;5069920;28;20033;-69
2021/08/15 08:54:02;;;;;;;397.70;28.90;;;;;12.50;100868.00;;;;5069966;28;20028;-69
2021/08/15 08:56:28;;;;;;;408.00;31.50;;;;;12.60;100876.00;;;;5069666;28;20029;-69
2021/08/15 08:58:55;;;;;;;307.27;28.83;;;;;12.60;100864.00;;;;5070078;28;20028;-69
2021/08/15 09:01:22;;;;;;;132.32;24.35;;;;;12.60;100883.00;;;;5069261;28;20470;-69
2021/08/15 09:03:48;;;;;;;224.93;26.02;;;;;12.70;100863.00;;;;5069233;28;20039;-70
2021/08/15 09:06:24;;;;;;;168.43;27.75;;;;;12.80;100876.00;;;;5068948;28;20047;-68
2021/08/15 09:08:52;;;;;;;419.52;31.30;;;;;12.80;100894.00;;;;5069328;28;20049;-70
2021/08/15 09:11:24;;;;;;;343.65;31.30;;;;;12.80;100872.00;;;;5068840;28;20024;-70
2021/08/15 09:14:05;;;;;;;263.48;27.20;;;;;12.80;100874.00;;;;5068877;28;20488;-70
2021/08/15 09:16:57;;;;;;;266.80;27.83;;;;;12.80;100880.00;;;;5069008;28;20033;-69
2021/08/15 09:19:30;;;;;;;191.23;23.27;;;;;12.80;100884.00;;;;5068633;28;20063;-70
2021/08/15 09:22:10;;;;;;;191.85;23.20;;;;;12.80;100869.00;;;;5069489;28;20399;-69
2021/08/15 09:25:12;;;;;;;237.07;23.75;;;;;12.80;100876.00;;;;5069392;28;20059;-70
2021/08/15 09:27:52;;;;;;;249.85;20.02;;;;;12.60;100877.00;;;;5068817;28;20438;-70
2021/08/15 09:30:27;;;;;;;244.10;17.83;;;;;12.60;100884.00;;;;5068710;28;20036;-69
2021/08/15 09:32:56;;;;;;;276.80;19.27;;;;;12.60;100891.00;;;;5069080;28;20753;-69
2021/08/15 09:35:35;;;;;;;170.30;18.38;;;;;12.60;100886.00;;;;5050923;28;20663;-68
2021/08/15 09:38:05;;;;;;;92.97;17.92;;;;;12.50;100887.00;;;;5068611;28;20467;-69
2021/08/15 09:40:53;;;;;;;71.28;17.52;;;;;12.50;100901.00;;;;5068703;28;20036;-69
2021/08/15 09:43:30;;;;;;;56.45;17.77;;;;;12.50;100885.00;;;;5069370;28;20036;-69
2021/08/15 09:45:58;;;;;;;63.30;18.77;;;;;12.50;100906.00;;;;5068738;28;20032;-69
2021/08/15 09:48:37;;;;;;;90.65;18.70;;;;;12.50;100910.00;;;;5050208;28;20028;-69
2021/08/15 09:51:23;;;;;;;91.57;18.10;;;;;12.50;100912.00;;;;5068660;28;20848;-69
2021/08/15 09:53:55;;;;;;;56.45;20.27;;;;;12.60;100917.00;;;;5068039;28;20123;-69
2021/08/15 09:56:39;;;;;;;40.42;20.65;;;;;12.60;100909.00;;;;5068514;28;20025;-70
2021/08/15 09:59:22;;;;;;;57.40;20.95;;;;;12.60;100916.00;;;;5067842;28;20048;-70
2021/08/15 10:01:57;;;;;;;37.30;19.33;;;;;12.70;100912.00;;;;5068685;28;20075;-70
2021/08/15 10:04:25;;;;;;;50.42;19.23;;;;;12.60;100910.00;;;;5068438;28;20043;-68
2021/08/15 10:06:54;;;;;;;44.45;19.00;;;;;12.60;100923.00;;;;5068388;28;20048;-70
2021/08/15 10:09:22;;;;;;;54.97;19.20;;;;;12.60;100921.00;;;;5068020;28;20643;-69
2021/08/15 10:11:49;;;;;;;67.78;19.40;;;;;12.60;100908.00;;;;5067999;28;20038;-69
2021/08/15 10:14:16;;;;;;;37.97;17.30;;;;;12.60;100913.00;;;;5068116;28;20025;-70
2021/08/15 10:16:59;;;;;;;36.33;18.48;;;;;12.60;100925.00;;;;5068038;28;20093;-69
2021/08/15 10:19:40;;;;;;;27.38;17.20;;;;;12.60;100924.00;;;;5067617;28;20512;-69
2021/08/15 10:22:07;;;;;;;33.25;17.80;;;;;12.60;100929.00;;;;5067149;28;20431;-68
2021/08/15 10:25:03;;;;;;;26.88;17.27;;;;;12.70;100923.00;;;;5067278;28;20038;-69
2021/08/15 10:27:42;;;;;;;25.73;17.55;;;;;12.80;100929.00;;;;5066406;28;20403;-69
2021/08/15 10:30:21;;;;;;;28.92;18.40;;;;;12.80;100928.00;;;;5067563;28;20052;-68
2021/08/15 10:32:57;;;;;;;33.50;18.17;;;;;13.00;100945.00;;;;5067849;28;20037;-69
2021/08/15 10:35:37;;;;;;;35.05;19.40;;;;;13.00;100920.00;;;;5067889;28;20506;-69
2021/08/15 10:38:08;;;;;;;30.65;18.45;;;;;13.00;100912.00;;;;5068109;28;20035;-69
2021/08/15 10:40:41;;;;;;;26.40;16.33;;;;;13.10;100930.00;;;;5067020;28;20036;-69
2021/08/15 10:43:12;;;;;;;26.90;17.58;;;;;13.20;100936.00;;;;5066935;28;20064;-68
2021/08/15 10:45:40;;;;;;;30.38;18.27;;;;;13.20;100926.00;;;;5067909;28;20028;-70
2021/08/15 10:48:10;;;;;;;25.35;16.90;;;;;13.30;100941.00;;;;5066949;28;20671;-69
2021/08/15 10:50:51;;;;;;;27.60;17.27;;;;;13.30;100929.00;;;;5066823;28;20086;-70
2021/08/15 10:53:29;;;;;;;22.38;15.90;;;;;13.40;100947.00;;;;5066206;28;20043;-70
2021/08/15 10:55:57;;;;;;;20.15;15.10;;;;;13.50;100944.00;;;;5066743;28;20028;-69
2021/08/15 10:58:41;;;;;;;21.27;15.98;;;;;13.80;100923.00;;;;5067631;28;20551;-69
2021/08/15 11:01:13;;;;;;;18.38;13.38;;;;;13.80;100935.00;;;;5067472;28;20024;-69
2021/08/15 11:04:00;;;;;;;20.67;14.38;;;;;13.90;100940.00;;;;5067326;28;20119;-69
2021/08/15 11:06:32;;;;;;;19.25;14.52;;;;;13.90;100956.00;;;;5066697;28;20040;-69
2021/08/15 11:09:03;;;;;;;21.73;14.35;;;;;13.90;100938.00;;;;5067652;28;20407;-69
2021/08/15 11:11:34;;;;;;;19.65;14.10;;;;;14.10;100941.00;;;;5067017;28;20047;-69
2021/08/15 11:14:19;;;;;;;18.83;14.63;;;;;14.30;100943.00;;;;5067161;28;20070;-70
2021/08/15 11:16:48;;;;;;;16.70;13.20;;;;;14.50;100940.00;;;;5066372;28;20556;-69
2021/08/15 11:19:15;;;;;;;16.25;12.40;;;;;15.00;100939.00;;;;5066435;28;20119;-70
2021/08/15 11:22:02;;;;;;;15.60;13.18;;;;;14.90;100939.00;;;;5066713;28;20117;-70
2021/08/15 11:24:31;;;;;;;16.55;13.85;;;;;14.70;100943.00;;;;5066513;28;20351;-70
2021/08/15 11:26:58;;;;;;;14.20;12.68;;;;;14.70;100931.00;;;;5067707;28;20447;-70
2021/08/15 11:29:25;;;;;;;16.00;12.98;;;;;14.80;100933.00;;;;5066958;28;20547;-70
2021/08/15 11:31:54;;;;;;;15.13;11.82;;;;;14.80;100944.00;;;;5066437;28;20079;-70
2021/08/15 11:34:22;;;;;;;16.38;12.82;;;;;14.80;100941.00;;;;5066093;28;20487;-70
2021/08/15 11:37:01;;;;;;;18.88;15.35;;;;;14.90;100953.00;;;;5066442;28;20453;-69
2021/08/15 11:39:35;;;;;;;20.20;16.67;;;;;14.90;100945.00;;;;5066333;28;20141;-70
2021/08/15 11:42:06;;;;;;;23.55;15.43;;;;;14.90;100974.00;;;;5066814;28;20492;-70
2021/08/15 11:44:58;;;;;;;30.00;17.98;;;;;15.20;100981.00;;;;5066289;28;20043;-69
2021/08/15 11:47:29;;;;;;;31.45;20.60;;;;;14.80;100983.00;;;;5066567;28;20089;-69
2021/08/15 11:49:58;;;;;;;25.30;18.75;;;;;14.60;100998.00;;;;5066517;28;20108;-69
2021/08/15 11:52:37;;;;;;;29.52;19.00;;;;;14.70;100985.00;;;;5066841;28;20036;-70
2021/08/15 11:55:09;;;;;;;33.97;19.90;;;;;14.70;100971.00;;;;5065974;28;20051;-69
2021/08/15 11:57:46;;;;;;;30.08;19.23;;;;;15.00;100975.00;;;;5066760;28;20024;-70
2021/08/15 12:00:14;;;;;;;31.10;18.58;;;;;15.00;100979.00;;;;5066011;28;20067;-69